createdAt,value
2018-06-12T00:00:21.497Z,17.70
2018-06-12T00:02:52.212Z,17.70
2018-06-12T00:05:22.672Z,17.60
2018-06-12T00:07:53.268Z,17.50
2018-06-12T00:10:24.247Z,17.50
2018-06-12T00:12:54.741Z,17.50
2018-06-12T00:15:25.329Z,17.50
2018-06-12T00:17:56.680Z,17.50
2018-06-12T00:20:27.526Z,17.40
2018-06-12T00:22:57.986Z,17.40
2018-06-12T00:25:28.533Z,17.30
2018-06-12T00:27:59.641Z,17.30
2018-06-12T00:30:30.184Z,17.60
2018-06-12T00:33:00.956Z,17.40
2018-06-12T00:35:31.571Z,17.30
2018-06-12T00:38:02.032Z,17.40
2018-06-12T00:40:32.334Z,17.30
2018-06-12T00:43:03.590Z,17.30
2018-06-12T00:45:34.093Z,17.30
2018-06-12T00:48:04.941Z,17.20
2018-06-12T00:50:35.564Z,17.20
2018-06-12T00:53:06.165Z,17.20
2018-06-12T00:55:36.760Z,17.20
2018-06-12T00:58:07.273Z,17.20
2018-06-12T01:00:37.849Z,17.20
2018-06-12T01:03:08.572Z,17.30
2018-06-12T01:05:39.250Z,17.40
2018-06-12T01:08:09.845Z,17.40
2018-06-12T01:10:40.520Z,17.40
2018-06-12T01:13:11.300Z,17.40
2018-06-12T01:15:42.027Z,17.30
2018-06-12T01:18:12.532Z,17.20
2018-06-12T01:20:43.492Z,17.20
2018-06-12T01:23:14.105Z,17.10
2018-06-12T01:25:44.677Z,17.10
2018-06-12T01:28:15.378Z,17.00
2018-06-12T01:30:46.264Z,16.90
2018-06-12T01:33:17.086Z,16.80
2018-06-12T01:35:47.656Z,16.70
2018-06-12T01:38:18.051Z,16.70
2018-06-12T01:40:48.724Z,16.50
2018-06-12T01:43:19.205Z,16.50
2018-06-12T01:45:50.223Z,16.50
2018-06-12T01:48:20.753Z,16.40
2018-06-12T01:50:51.295Z,16.40
2018-06-12T01:53:21.784Z,16.30
2018-06-12T01:55:52.438Z,16.30
2018-06-12T01:58:23.004Z,16.20
2018-06-12T02:00:53.415Z,16.20
2018-06-12T02:03:24.042Z,16.20
2018-06-12T02:05:54.853Z,16.20
2018-06-12T02:08:25.384Z,16.20
2018-06-12T02:10:55.935Z,16.10
2018-06-12T02:13:26.504Z,16.10
2018-06-12T02:15:57.119Z,16.00
2018-06-12T02:18:27.524Z,15.90
2018-06-12T02:20:58.026Z,15.90
2018-06-12T02:23:28.567Z,15.90
2018-06-12T02:25:59.100Z,15.80
2018-06-12T02:28:29.527Z,15.80
2018-06-12T02:31:00.434Z,15.90
2018-06-12T02:33:30.942Z,15.90
2018-06-12T02:38:31.480Z,15.90
2018-06-12T02:41:02.301Z,16.00
2018-06-12T02:43:32.930Z,15.90
2018-06-12T02:46:03.309Z,15.80
2018-06-12T02:48:33.815Z,15.80
2018-06-12T02:51:04.516Z,15.70
2018-06-12T02:53:35.037Z,15.60
2018-06-12T02:56:05.760Z,15.60
2018-06-12T02:58:36.564Z,15.60
2018-06-12T03:01:07.251Z,15.60
2018-06-12T03:03:37.756Z,15.50
2018-06-12T03:06:08.279Z,15.50
2018-06-12T03:08:38.764Z,15.60
2018-06-12T03:11:09.166Z,15.60
2018-06-12T03:13:39.668Z,15.60
2018-06-12T03:16:10.337Z,15.60
2018-06-12T03:18:40.846Z,15.60
2018-06-12T03:21:11.308Z,15.60
2018-06-12T03:23:41.751Z,15.60
2018-06-12T03:26:12.519Z,15.80
2018-06-12T03:28:43.168Z,15.90
2018-06-12T03:31:13.728Z,16.00
2018-06-12T03:33:44.376Z,16.10
2018-06-12T03:36:14.895Z,16.20
2018-06-12T03:38:45.493Z,16.30
2018-06-12T03:41:16.068Z,16.40
2018-06-12T03:43:46.742Z,16.40
2018-06-12T03:46:17.295Z,16.50
2018-06-12T03:48:47.910Z,16.60
2018-06-12T03:51:18.675Z,16.70
2018-06-12T03:53:49.268Z,16.80
2018-06-12T03:56:20.162Z,16.80
2018-06-12T03:58:50.630Z,16.90
2018-06-12T04:01:21.051Z,17.00
2018-06-12T04:03:51.496Z,17.00
2018-06-12T04:06:22.093Z,17.10
2018-06-12T04:08:52.641Z,17.20
2018-06-12T04:11:23.195Z,17.30
2018-06-12T04:13:53.655Z,17.40
2018-06-12T04:16:24.296Z,17.50
2018-06-12T04:18:54.951Z,17.70
2018-06-12T04:21:25.488Z,17.90
2018-06-12T04:23:56.074Z,18.00
2018-06-12T04:26:26.655Z,18.20
2018-06-12T04:28:57.308Z,18.40
2018-06-12T04:31:27.796Z,18.50
2018-06-12T04:33:58.391Z,18.60
2018-06-12T04:36:28.993Z,18.70
2018-06-12T04:38:59.565Z,18.80
2018-06-12T04:41:30.055Z,18.80
2018-06-12T04:44:00.562Z,18.90
2018-06-12T04:46:31.041Z,19.00
2018-06-12T04:49:01.480Z,19.00
2018-06-12T04:51:32.390Z,19.20
2018-06-12T04:54:03.332Z,19.30
2018-06-12T04:56:33.805Z,19.30
2018-06-12T04:59:04.847Z,19.40
2018-06-12T05:01:35.373Z,19.40
2018-06-12T05:04:06.311Z,19.60
2018-06-12T05:06:36.789Z,19.80
2018-06-12T05:09:08.767Z,19.90
2018-06-12T05:11:39.176Z,20.00
2018-06-12T05:14:09.685Z,20.10
2018-06-12T05:16:40.096Z,20.30
2018-06-12T05:19:10.489Z,20.50
2018-06-12T05:21:41.023Z,20.60
2018-06-12T05:24:11.553Z,20.80
2018-06-12T05:26:45.967Z,20.80
2018-06-12T05:29:16.488Z,21.00
2018-06-12T05:31:46.992Z,21.40
2018-06-12T05:34:17.420Z,21.60
2018-06-12T05:36:47.859Z,21.90
2018-06-12T05:39:18.464Z,22.20
2018-06-12T05:41:48.995Z,23.00
2018-06-12T05:44:19.763Z,22.60
2018-06-12T05:46:50.248Z,22.90
2018-06-12T05:49:20.777Z,23.10
2018-06-12T05:51:51.402Z,23.20
2018-06-12T05:54:22.258Z,23.30
2018-06-12T05:56:52.970Z,23.40
2018-06-12T05:59:23.445Z,23.50
2018-06-12T06:01:54.078Z,23.40
2018-06-12T06:04:25.079Z,23.50
2018-06-12T06:06:55.625Z,23.60
2018-06-12T06:09:26.184Z,23.90
2018-06-12T06:11:56.919Z,24.00
2018-06-12T06:14:27.738Z,24.10
2018-06-12T06:17:00.691Z,24.10
2018-06-12T06:19:31.345Z,24.20
2018-06-12T06:22:01.923Z,24.30
2018-06-12T06:24:32.994Z,24.40
2018-06-12T06:27:03.505Z,24.60
2018-06-12T06:29:34.121Z,24.90
2018-06-12T06:32:04.689Z,24.90
2018-06-12T06:34:35.287Z,25.20
2018-06-12T06:37:06.089Z,25.60
2018-06-12T06:39:36.515Z,25.90
2018-06-12T06:42:07.349Z,26.20
2018-06-12T06:44:37.891Z,26.30
2018-06-12T06:47:08.467Z,26.40
2018-06-12T06:49:39.052Z,26.70
2018-06-12T06:52:12.373Z,26.90
2018-06-12T06:54:43.493Z,27.00
2018-06-12T06:57:13.961Z,26.90
2018-06-12T06:59:44.512Z,26.70
2018-06-12T07:02:15.125Z,26.80
2018-06-12T07:04:45.830Z,27.20
2018-06-12T07:07:16.236Z,27.40
2018-06-12T07:09:46.898Z,27.50
2018-06-12T07:12:17.465Z,27.80
2018-06-12T07:14:48.003Z,28.00
2018-06-12T07:17:19.169Z,28.30
2018-06-12T07:19:49.873Z,28.40
2018-06-12T07:22:20.915Z,28.30
2018-06-12T07:24:51.750Z,28.30
2018-06-12T07:27:22.851Z,28.30
2018-06-12T07:29:53.530Z,28.30
2018-06-12T07:32:24.444Z,28.30
2018-06-12T07:34:55.724Z,28.20
2018-06-12T07:37:26.463Z,28.30
2018-06-12T07:39:56.868Z,28.10
2018-06-12T07:42:27.995Z,28.40
2018-06-12T07:44:58.944Z,28.50
2018-06-12T07:47:29.520Z,28.20
2018-06-12T07:50:00.804Z,28.30
2018-06-12T07:52:31.499Z,28.10
2018-06-12T07:55:02.174Z,27.90
2018-06-12T07:57:32.903Z,28.40
2018-06-12T08:00:03.813Z,28.30
2018-06-12T08:02:34.626Z,28.50
2018-06-12T08:05:05.469Z,28.80
2018-06-12T08:07:36.016Z,28.90
2018-06-12T08:10:06.533Z,29.00
2018-06-12T08:12:37.173Z,28.90
2018-06-12T08:15:08.672Z,28.90
2018-06-12T08:17:39.395Z,28.80
2018-06-12T08:20:10.276Z,28.80
2018-06-12T08:22:41.476Z,29.10
2018-06-12T08:25:12.653Z,29.20
2018-06-12T08:27:43.523Z,29.50
2018-06-12T08:30:14.472Z,29.70
2018-06-12T08:32:45.505Z,30.00
2018-06-12T08:35:16.134Z,30.10
2018-06-12T08:37:46.919Z,30.20
2018-06-12T08:40:17.735Z,30.30
2018-06-12T08:42:48.283Z,30.40
2018-06-12T08:45:18.874Z,30.50
2018-06-12T08:47:50.473Z,30.60
2018-06-12T08:50:21.169Z,30.50
2018-06-12T08:52:51.808Z,30.50
2018-06-12T08:55:22.571Z,30.80
2018-06-12T08:57:53.320Z,31.10
2018-06-12T09:00:23.969Z,31.10
2018-06-12T09:02:54.677Z,30.50
2018-06-12T09:05:25.404Z,30.80
2018-06-12T09:07:56.468Z,31.10
2018-06-12T09:10:27.122Z,31.10
2018-06-12T09:12:57.858Z,31.30
2018-06-12T09:15:28.658Z,31.30
2018-06-12T09:17:59.464Z,31.50
2018-06-12T09:20:30.576Z,31.50
2018-06-12T09:23:01.197Z,31.60
2018-06-12T09:25:31.836Z,31.40
2018-06-12T09:28:03.232Z,31.50
2018-06-12T09:30:33.999Z,31.70
2018-06-12T09:33:04.793Z,31.80
2018-06-12T09:38:05.759Z,31.50
2018-06-12T09:40:36.692Z,31.60
2018-06-12T09:43:07.552Z,31.80
2018-06-12T09:45:38.300Z,32.10
2018-06-12T09:48:08.851Z,32.00
2018-06-12T09:50:39.627Z,32.10
2018-06-12T09:53:10.416Z,32.30
2018-06-12T09:55:41.374Z,32.00
2018-06-12T09:58:12.098Z,32.00
2018-06-12T10:00:47.855Z,32.00
2018-06-12T10:03:18.844Z,31.80
2018-06-12T10:05:49.664Z,31.80
2018-06-12T10:08:20.708Z,31.80
2018-06-12T10:10:51.315Z,31.80
2018-06-12T10:13:21.931Z,32.00
2018-06-12T10:15:52.487Z,32.40
2018-06-12T10:18:23.216Z,32.20
2018-06-12T10:20:54.049Z,32.00
2018-06-12T10:25:54.462Z,32.40
2018-06-12T10:28:25.177Z,32.60
2018-06-12T10:30:55.909Z,32.70
2018-06-12T10:33:26.756Z,33.00
2018-06-12T10:35:57.435Z,33.20
2018-06-12T10:38:28.796Z,33.20
2018-06-12T10:40:59.324Z,33.30
2018-06-12T10:43:29.847Z,33.30
2018-06-12T10:46:00.717Z,33.30
2018-06-12T10:48:31.397Z,33.40
2018-06-12T10:51:01.926Z,33.50
2018-06-12T10:53:32.588Z,33.50
2018-06-12T10:56:03.238Z,33.50
2018-06-12T10:58:34.211Z,33.50
2018-06-12T11:01:04.929Z,33.50
2018-06-12T11:03:35.416Z,33.50
2018-06-12T11:06:06.412Z,33.50
2018-06-12T11:08:37.169Z,33.40
2018-06-12T11:13:37.997Z,33.30
2018-06-12T11:16:08.678Z,33.30
2018-06-12T11:18:39.986Z,33.20
2018-06-12T11:21:10.579Z,33.20
2018-06-12T11:23:41.284Z,33.20
2018-06-12T11:26:12.030Z,33.40
2018-06-12T11:28:42.743Z,33.40
2018-06-12T11:31:13.765Z,33.30
2018-06-12T11:33:44.660Z,33.40
2018-06-12T11:36:15.937Z,33.40
2018-06-12T11:38:46.696Z,33.30
2018-06-12T11:41:17.454Z,33.20
2018-06-12T11:43:48.321Z,33.20
2018-06-12T11:46:19.337Z,33.30
2018-06-12T11:48:50.042Z,33.30
2018-06-12T11:53:50.533Z,33.30
2018-06-12T11:56:21.298Z,33.40
2018-06-12T11:58:51.899Z,33.50
2018-06-12T12:01:22.724Z,33.70
2018-06-12T12:03:53.294Z,33.70
2018-06-12T12:06:24.290Z,33.80
2018-06-12T12:08:55.008Z,33.90
2018-06-12T12:11:25.687Z,33.90
2018-06-12T12:13:56.293Z,33.90
2018-06-12T12:16:27.136Z,33.90
2018-06-12T12:18:57.703Z,34.00
2018-06-12T12:21:28.803Z,34.10
2018-06-12T12:24:00.144Z,34.00
2018-06-12T12:26:34.124Z,34.10
2018-06-12T12:29:06.807Z,34.00
2018-06-12T12:31:38.946Z,34.10
2018-06-12T12:34:09.996Z,34.10
2018-06-12T12:36:46.364Z,34.10
2018-06-12T12:39:17.324Z,34.20
2018-06-12T12:44:18.039Z,34.30
2018-06-12T12:46:49.063Z,34.20
2018-06-12T12:49:19.769Z,34.20
2018-06-12T12:51:50.709Z,34.20
2018-06-12T12:54:21.695Z,34.30
2018-06-12T12:56:52.504Z,34.30
2018-06-12T12:59:23.555Z,34.40
2018-06-12T13:01:54.347Z,34.40
2018-06-12T13:04:25.087Z,34.40
2018-06-12T13:06:55.723Z,34.30
2018-06-12T13:09:27.775Z,34.20
2018-06-12T13:11:58.651Z,34.30
2018-06-12T13:14:29.881Z,34.40
2018-06-12T13:17:01.815Z,34.40
2018-06-12T13:19:34.532Z,34.40
2018-06-12T13:22:06.030Z,34.40
2018-06-12T13:24:38.592Z,34.40
2018-06-12T13:27:09.608Z,34.20
2018-06-12T13:29:49.718Z,34.20
2018-06-12T13:32:22.089Z,34.10
2018-06-12T13:34:53.610Z,33.90
2018-06-12T13:37:25.303Z,33.90
2018-06-12T13:39:57.430Z,33.50
2018-06-12T13:42:29.793Z,33.90
2018-06-12T13:45:01.537Z,34.10
2018-06-12T13:47:32.679Z,34.30
2018-06-12T13:50:03.700Z,34.40
2018-06-12T13:53:37.271Z,34.30
2018-06-12T13:56:10.089Z,34.40
2018-06-12T13:58:41.249Z,34.30
2018-06-12T14:01:11.801Z,34.20
2018-06-12T14:03:42.371Z,34.00
2018-06-12T14:06:13.070Z,33.90
2018-06-12T14:08:43.487Z,34.10
2018-06-12T14:11:14.524Z,34.20
2018-06-12T14:13:45.239Z,34.30
2018-06-12T14:16:15.971Z,34.30
2018-06-12T14:18:46.602Z,34.40
2018-06-12T14:21:18.111Z,34.10
2018-06-12T14:23:49.647Z,33.90
2018-06-12T14:26:20.631Z,34.00
2018-06-12T14:28:51.246Z,34.00
2018-06-12T14:31:22.175Z,33.80
2018-06-12T14:33:53.194Z,34.00
2018-06-12T14:36:23.730Z,34.00
2018-06-12T14:38:54.151Z,33.90
2018-06-12T14:41:24.557Z,33.80
2018-06-12T14:43:55.290Z,33.40
2018-06-12T14:46:26.136Z,33.70
2018-06-12T14:48:56.872Z,33.50
2018-06-12T14:51:27.735Z,33.50
2018-06-12T14:53:59.379Z,33.50
2018-06-12T14:56:30.868Z,33.50
2018-06-12T14:59:02.545Z,33.40
2018-06-12T15:01:33.799Z,33.30
2018-06-12T15:04:05.533Z,33.00
2018-06-12T15:06:42.473Z,32.90
2018-06-12T15:09:13.367Z,32.80
2018-06-12T15:11:45.372Z,32.60
2018-06-12T15:14:16.742Z,32.80
2018-06-12T15:16:48.793Z,32.70
2018-06-12T15:19:19.485Z,32.60
2018-06-12T15:21:50.661Z,32.30
2018-06-12T15:24:22.001Z,32.50
2018-06-12T15:26:52.433Z,32.40
2018-06-12T15:29:23.068Z,32.30
2018-06-12T15:31:53.523Z,32.10
2018-06-12T15:34:25.540Z,31.90
2018-06-12T15:36:56.056Z,31.80
2018-06-12T15:39:26.785Z,31.70
2018-06-12T15:41:57.634Z,31.80
2018-06-12T15:44:28.843Z,31.80
2018-06-12T15:46:59.176Z,31.70
2018-06-12T15:49:30.440Z,31.90
2018-06-12T15:52:02.006Z,31.80
2018-06-12T15:54:32.970Z,31.60
2018-06-12T15:57:04.210Z,31.30
2018-06-12T15:59:34.620Z,31.20
2018-06-12T16:02:05.241Z,31.10
2018-06-12T16:04:36.016Z,31.40
2018-06-12T16:07:06.592Z,31.70
2018-06-12T16:09:37.318Z,31.90
2018-06-12T16:12:07.799Z,32.00
2018-06-12T16:14:38.610Z,32.10
2018-06-12T16:17:09.084Z,32.20
2018-06-12T16:22:09.287Z,32.10
2018-06-12T16:24:39.754Z,32.10
2018-06-12T16:27:10.235Z,32.10
2018-06-12T16:29:40.580Z,32.00
2018-06-12T16:32:11.091Z,32.00
2018-06-12T16:34:41.513Z,31.70
2018-06-12T16:37:11.964Z,30.60
2018-06-12T16:39:42.390Z,29.90
2018-06-12T16:42:12.802Z,29.40
2018-06-12T16:44:43.612Z,29.00
2018-06-12T16:47:14.029Z,28.80
2018-06-12T16:49:44.352Z,28.60
2018-06-12T16:52:14.751Z,28.40
2018-06-12T16:54:45.508Z,28.10
2018-06-12T16:57:16.109Z,27.80
2018-06-12T16:59:46.693Z,27.60
2018-06-12T17:02:17.155Z,27.50
2018-06-12T17:04:47.863Z,27.30
2018-06-12T17:07:18.577Z,27.10
2018-06-12T17:09:49.121Z,26.90
2018-06-12T17:12:20.076Z,26.70
2018-06-12T17:14:50.661Z,26.60
2018-06-12T17:17:21.261Z,26.50
2018-06-12T17:19:51.834Z,26.30
2018-06-12T17:22:22.393Z,26.20
2018-06-12T17:24:52.878Z,26.00
2018-06-12T17:27:23.369Z,25.90
2018-06-12T17:29:53.851Z,25.80
2018-06-12T17:32:24.749Z,25.70
2018-06-12T17:34:55.139Z,25.60
2018-06-12T17:37:25.764Z,25.60
2018-06-12T17:39:56.262Z,25.50
2018-06-12T17:42:26.694Z,25.50
2018-06-12T17:44:57.236Z,25.50
2018-06-12T17:47:27.771Z,25.40
2018-06-12T17:49:58.283Z,25.30
2018-06-12T17:52:28.732Z,25.30
2018-06-12T17:54:59.144Z,25.30
2018-06-12T17:57:29.731Z,25.20
2018-06-12T18:00:00.145Z,25.20
2018-06-12T18:02:31.474Z,25.10
2018-06-12T18:05:04.000Z,25.10
2018-06-12T18:07:34.853Z,25.00
2018-06-12T18:10:07.527Z,24.90
2018-06-12T18:12:39.196Z,24.70
2018-06-12T18:17:39.714Z,24.30
2018-06-12T18:20:10.472Z,24.10
2018-06-12T18:22:41.052Z,24.00
2018-06-12T18:25:11.734Z,23.90
2018-06-12T18:27:44.359Z,23.90
2018-06-12T18:30:15.322Z,23.80
2018-06-12T18:32:48.078Z,23.70
2018-06-12T18:35:20.246Z,23.60
2018-06-12T18:37:51.389Z,23.50
2018-06-12T18:40:22.238Z,23.50
2018-06-12T18:42:52.967Z,23.40
2018-06-12T18:45:23.838Z,23.40
2018-06-12T18:47:56.756Z,23.30
2018-06-12T18:50:27.996Z,23.20
2018-06-12T18:52:58.932Z,23.20
2018-06-12T18:55:29.711Z,23.10
2018-06-12T18:58:00.538Z,23.00
2018-06-12T19:00:31.140Z,23.00
2018-06-12T19:03:01.703Z,22.90
2018-06-12T19:05:34.390Z,22.90
2018-06-12T19:08:05.496Z,22.80
2018-06-12T19:10:43.233Z,22.80
2018-06-12T19:13:14.189Z,22.70
2018-06-12T19:15:45.221Z,22.70
2018-06-12T19:18:16.522Z,22.70
2018-06-12T19:20:47.484Z,22.60
2018-06-12T19:23:18.960Z,22.50
2018-06-12T19:25:50.089Z,22.40
2018-06-12T19:30:51.971Z,22.30
2018-06-12T19:33:24.064Z,22.20
2018-06-12T19:35:56.610Z,22.10
2018-06-12T19:38:28.718Z,22.00
2018-06-12T19:41:00.428Z,22.00
2018-06-12T19:43:32.089Z,21.90
2018-06-12T19:46:03.769Z,21.80
2018-06-12T19:48:35.378Z,21.70
2018-06-12T19:51:07.191Z,21.60
2018-06-12T19:53:39.095Z,21.60
2018-06-12T19:56:10.986Z,21.50
2018-06-12T19:58:42.639Z,21.60
2018-06-12T20:01:19.104Z,21.50
2018-06-12T20:03:51.364Z,21.40
2018-06-12T20:06:27.562Z,21.30
2018-06-12T20:08:59.785Z,21.30
2018-06-12T20:11:31.453Z,21.20
2018-06-12T20:14:03.457Z,21.10
2018-06-12T20:16:35.240Z,21.20
2018-06-12T20:19:07.066Z,21.10
2018-06-12T20:21:38.803Z,21.10
2018-06-12T20:24:10.939Z,21.00
2018-06-12T20:26:42.728Z,21.10
2018-06-12T20:29:14.787Z,21.00
2018-06-12T20:31:49.203Z,20.90
2018-06-12T20:34:21.440Z,20.80
2018-06-12T20:36:57.946Z,20.70
2018-06-12T20:39:30.260Z,20.60
2018-06-12T20:42:02.047Z,20.60
2018-06-12T20:44:33.876Z,20.50
2018-06-12T20:47:05.393Z,20.40
2018-06-12T20:49:39.043Z,20.30
2018-06-12T20:52:11.938Z,20.30
2018-06-12T20:54:45.549Z,20.20
2018-06-12T20:57:18.495Z,20.20
2018-06-12T20:59:50.775Z,20.20
2018-06-12T21:02:23.372Z,20.10
2018-06-12T21:04:55.647Z,20.10
2018-06-12T21:07:27.675Z,20.10
2018-06-12T21:09:59.762Z,20.00
2018-06-12T21:12:31.380Z,20.00
2018-06-12T21:15:04.319Z,19.90
2018-06-12T21:17:36.407Z,19.90
2018-06-12T21:20:13.061Z,19.90
2018-06-12T21:22:44.874Z,19.90
2018-06-12T21:25:16.597Z,19.90
2018-06-12T21:27:48.724Z,19.90
2018-06-12T21:30:20.690Z,19.80
2018-06-12T21:32:52.522Z,19.80
2018-06-12T21:35:24.832Z,19.80
2018-06-12T21:37:57.241Z,19.80
2018-06-12T21:40:29.741Z,19.80
2018-06-12T21:43:01.622Z,19.70
2018-06-12T21:45:33.356Z,19.60
2018-06-12T21:48:06.489Z,19.60
2018-06-12T21:50:39.516Z,19.60
2018-06-12T21:53:11.392Z,19.50
2018-06-12T21:55:43.450Z,19.50
2018-06-12T21:58:15.113Z,19.40
2018-06-12T22:00:46.690Z,19.30
2018-06-12T22:03:18.095Z,19.30
2018-06-12T22:05:50.000Z,19.20
2018-06-12T22:08:21.528Z,19.10
2018-06-12T22:10:53.539Z,19.20
2018-06-12T22:13:25.033Z,19.10
2018-06-12T22:15:56.719Z,19.10
2018-06-12T22:18:28.671Z,19.00
2018-06-12T22:21:00.428Z,18.90
2018-06-12T22:23:32.467Z,18.90
2018-06-12T22:26:04.258Z,18.80
2018-06-12T22:28:36.123Z,18.70
2018-06-12T22:33:38.537Z,18.70
2018-06-12T22:36:10.305Z,18.50
2018-06-12T22:38:42.000Z,18.70
2018-06-12T22:41:13.315Z,18.70
2018-06-12T22:43:44.547Z,18.70
2018-06-12T22:46:16.011Z,18.60
2018-06-12T22:48:47.298Z,18.50
2018-06-12T22:51:17.794Z,18.40
2018-06-12T22:53:48.261Z,18.40
2018-06-12T22:56:18.711Z,18.40
2018-06-12T22:58:49.134Z,18.30
2018-06-12T23:01:19.780Z,18.20
2018-06-12T23:03:50.296Z,18.10
2018-06-12T23:06:21.227Z,18.10
2018-06-12T23:08:52.079Z,18.10
2018-06-12T23:11:22.735Z,18.20
2018-06-12T23:13:53.170Z,18.20
2018-06-12T23:16:23.722Z,18.20
2018-06-12T23:18:54.447Z,18.10
2018-06-12T23:21:47.472Z,18.00
2018-06-12T23:24:17.986Z,18.00
2018-06-12T23:26:48.668Z,17.90
2018-06-12T23:29:19.197Z,17.90
2018-06-12T23:31:49.567Z,18.00
2018-06-12T23:34:20.098Z,17.90
2018-06-12T23:36:50.592Z,17.90
2018-06-12T23:39:21.072Z,17.70
2018-06-12T23:41:51.685Z,17.70
2018-06-12T23:44:22.163Z,17.60
2018-06-12T23:46:52.537Z,17.50
2018-06-12T23:49:23.087Z,17.40
2018-06-12T23:51:53.579Z,17.30
2018-06-12T23:54:24.309Z,17.30
2018-06-12T23:56:54.853Z,17.30
2018-06-12T23:59:25.578Z,17.20
